createdAt,value
2018-12-27T00:00:09.472Z,6.90
2018-12-27T00:02:38.588Z,6.90
2018-12-27T00:05:07.583Z,6.90
2018-12-27T00:07:36.655Z,6.90
2018-12-27T00:10:06.034Z,6.90
2018-12-27T00:12:35.092Z,6.90
2018-12-27T00:15:04.405Z,6.90
2018-12-27T00:17:33.582Z,6.90
2018-12-27T00:20:02.668Z,6.90
2018-12-27T00:22:31.818Z,6.90
2018-12-27T00:25:00.846Z,6.90
2018-12-27T00:27:29.925Z,6.80
2018-12-27T00:30:00.589Z,6.80
2018-12-27T00:32:29.771Z,6.90
2018-12-27T00:34:58.852Z,6.90
2018-12-27T00:37:28.121Z,6.90
2018-12-27T00:39:57.255Z,6.80
2018-12-27T00:42:26.544Z,6.80
2018-12-27T00:44:55.935Z,6.80
2018-12-27T00:47:25.041Z,6.70
2018-12-27T00:49:54.188Z,6.70
2018-12-27T00:52:23.271Z,6.70
2018-12-27T00:54:52.795Z,6.70
2018-12-27T00:57:21.809Z,6.70
2018-12-27T00:59:50.804Z,6.70
2018-12-27T01:02:20.038Z,6.70
2018-12-27T01:04:49.128Z,6.70
2018-12-27T01:07:18.233Z,6.70
2018-12-27T01:09:47.363Z,6.70
2018-12-27T01:12:16.872Z,6.70
2018-12-27T01:14:46.199Z,6.70
2018-12-27T01:17:15.535Z,6.70
2018-12-27T01:19:44.556Z,6.70
2018-12-27T01:22:13.842Z,6.80
2018-12-27T01:24:43.135Z,6.80
2018-12-27T01:27:12.255Z,6.80
2018-12-27T01:29:41.950Z,6.80
2018-12-27T01:32:11.524Z,6.80
2018-12-27T01:34:40.955Z,6.80
2018-12-27T01:37:10.106Z,6.80
2018-12-27T01:39:39.660Z,6.70
2018-12-27T01:42:08.884Z,6.80
2018-12-27T01:44:39.220Z,6.70
2018-12-27T01:47:08.313Z,6.70
2018-12-27T01:49:37.497Z,6.70
2018-12-27T01:52:06.538Z,6.70
2018-12-27T01:54:35.841Z,6.80
2018-12-27T01:57:05.156Z,6.80
2018-12-27T01:59:34.369Z,6.80
2018-12-27T02:02:03.408Z,6.80
2018-12-27T02:04:32.413Z,6.80
2018-12-27T02:07:01.429Z,6.80
2018-12-27T02:09:30.413Z,6.80
2018-12-27T02:11:59.426Z,6.80
2018-12-27T02:14:28.407Z,6.80
2018-12-27T02:16:57.431Z,6.80
2018-12-27T02:19:26.413Z,6.80
2018-12-27T02:21:55.408Z,6.80
2018-12-27T02:24:24.398Z,6.80
2018-12-27T02:26:53.412Z,6.80
2018-12-27T02:29:22.471Z,6.80
2018-12-27T02:31:51.489Z,6.80
2018-12-27T02:34:20.458Z,6.80
2018-12-27T02:36:49.463Z,6.80
2018-12-27T02:39:18.563Z,6.80
2018-12-27T02:41:47.569Z,6.80
2018-12-27T02:44:16.814Z,6.80
2018-12-27T02:46:45.815Z,6.80
2018-12-27T02:49:14.868Z,6.80
2018-12-27T02:51:43.949Z,6.80
2018-12-27T02:54:12.988Z,6.80
2018-12-27T02:56:41.930Z,6.70
2018-12-27T02:59:12.750Z,6.70
2018-12-27T03:01:41.741Z,6.70
2018-12-27T03:04:10.717Z,6.70
2018-12-27T03:06:39.715Z,6.70
2018-12-27T03:09:08.712Z,6.70
2018-12-27T03:11:37.795Z,6.70
2018-12-27T03:14:06.941Z,6.70
2018-12-27T03:16:35.968Z,6.70
2018-12-27T03:19:05.031Z,6.70
2018-12-27T03:21:34.130Z,6.70
2018-12-27T03:24:03.150Z,6.70
2018-12-27T03:26:32.310Z,6.70
2018-12-27T03:29:01.706Z,6.70
2018-12-27T03:31:30.763Z,6.70
2018-12-27T03:33:59.847Z,6.70
2018-12-27T03:36:28.932Z,6.70
2018-12-27T03:38:58.020Z,6.80
2018-12-27T03:41:27.036Z,6.70
2018-12-27T03:43:56.115Z,6.70
2018-12-27T03:46:25.142Z,6.70
2018-12-27T03:48:54.158Z,6.70
2018-12-27T03:51:23.304Z,6.80
2018-12-27T03:53:52.403Z,6.70
2018-12-27T03:56:21.457Z,6.70
2018-12-27T03:58:50.497Z,6.70
2018-12-27T04:01:19.561Z,6.70
2018-12-27T04:03:48.537Z,6.70
2018-12-27T04:06:17.539Z,6.70
2018-12-27T04:08:46.601Z,6.70
2018-12-27T04:11:15.658Z,6.70
2018-12-27T04:13:44.711Z,6.70
2018-12-27T04:16:13.688Z,6.70
2018-12-27T04:18:43.104Z,6.70
2018-12-27T04:21:13.023Z,6.70
2018-12-27T04:23:42.132Z,6.70
2018-12-27T04:26:17.409Z,6.70
2018-12-27T04:28:46.416Z,6.70
2018-12-27T04:31:15.374Z,6.60
2018-12-27T04:33:44.356Z,6.60
2018-12-27T04:36:14.325Z,6.70
2018-12-27T04:38:43.294Z,6.60
2018-12-27T04:41:12.305Z,6.70
2018-12-27T04:43:41.314Z,6.70
2018-12-27T04:46:10.323Z,6.70
2018-12-27T04:48:39.369Z,6.70
2018-12-27T04:51:08.455Z,6.60
2018-12-27T04:53:37.450Z,6.60
2018-12-27T04:56:06.511Z,6.60
2018-12-27T04:58:35.509Z,6.50
2018-12-27T05:01:04.494Z,6.50
2018-12-27T05:03:33.619Z,6.50
2018-12-27T05:06:02.699Z,6.50
2018-12-27T05:08:31.674Z,6.50
2018-12-27T05:11:00.674Z,6.50
2018-12-27T05:13:29.659Z,6.50
2018-12-27T05:15:58.676Z,6.50
2018-12-27T05:18:27.687Z,6.50
2018-12-27T05:20:56.701Z,6.50
2018-12-27T05:23:25.705Z,6.40
2018-12-27T05:25:54.719Z,6.40
2018-12-27T05:28:23.733Z,6.40
2018-12-27T05:30:52.673Z,6.40
2018-12-27T05:33:21.690Z,6.40
2018-12-27T05:35:50.687Z,6.40
2018-12-27T05:38:19.800Z,6.40
2018-12-27T05:40:48.811Z,6.40
2018-12-27T05:43:17.806Z,6.30
2018-12-27T05:45:46.799Z,6.30
2018-12-27T05:48:15.763Z,6.40
2018-12-27T05:50:44.786Z,6.40
2018-12-27T05:53:13.948Z,6.40
2018-12-27T05:55:42.950Z,6.40
2018-12-27T05:58:11.978Z,6.30
2018-12-27T06:00:41.254Z,6.30
2018-12-27T06:03:09.959Z,6.30
2018-12-27T06:05:38.983Z,6.30
2018-12-27T06:08:07.986Z,6.20
2018-12-27T06:10:37.223Z,6.20
2018-12-27T06:13:06.238Z,6.20
2018-12-27T06:15:35.256Z,6.20
2018-12-27T06:18:04.257Z,6.20
2018-12-27T06:20:33.363Z,6.20
2018-12-27T06:23:02.349Z,6.20
2018-12-27T06:25:31.379Z,6.20
2018-12-27T06:28:00.345Z,6.20
2018-12-27T06:30:29.461Z,6.10
2018-12-27T06:32:58.571Z,6.10
2018-12-27T06:35:27.528Z,6.10
2018-12-27T06:37:56.610Z,6.10
2018-12-27T06:40:25.888Z,6.00
2018-12-27T06:42:54.974Z,6.00
2018-12-27T06:45:23.980Z,6.00
2018-12-27T06:47:53.820Z,5.90
2018-12-27T06:50:22.800Z,5.80
2018-12-27T06:52:52.047Z,5.70
2018-12-27T06:55:21.036Z,5.60
2018-12-27T06:57:50.135Z,5.60
2018-12-27T07:00:19.177Z,5.50
2018-12-27T07:02:48.253Z,5.40
2018-12-27T07:05:17.283Z,5.40
2018-12-27T07:07:46.284Z,5.40
2018-12-27T07:10:15.378Z,5.50
2018-12-27T07:12:44.359Z,5.50
2018-12-27T07:15:13.333Z,5.50
2018-12-27T07:17:42.323Z,5.50
2018-12-27T07:20:11.325Z,5.50
2018-12-27T07:22:40.277Z,5.50
2018-12-27T07:25:09.295Z,5.40
2018-12-27T07:27:38.338Z,5.40
2018-12-27T07:30:07.625Z,5.40
2018-12-27T07:32:36.787Z,5.30
2018-12-27T07:35:05.904Z,5.30
2018-12-27T07:37:34.972Z,5.30
2018-12-27T07:40:05.328Z,5.30
2018-12-27T07:42:41.056Z,5.30
2018-12-27T07:45:10.359Z,5.30
2018-12-27T07:47:39.344Z,5.30
2018-12-27T07:50:08.420Z,5.30
2018-12-27T07:52:37.450Z,5.40
2018-12-27T07:55:06.540Z,5.40
2018-12-27T07:57:35.654Z,5.40
2018-12-27T08:00:05.177Z,5.40
2018-12-27T08:02:34.212Z,5.40
2018-12-27T08:05:04.293Z,5.60
2018-12-27T08:07:32.432Z,5.60
2018-12-27T08:10:01.388Z,5.60
2018-12-27T08:12:30.367Z,5.60
2018-12-27T08:14:59.480Z,5.50
2018-12-27T08:17:28.511Z,5.50
2018-12-27T08:19:57.537Z,5.50
2018-12-27T08:22:26.491Z,5.50
2018-12-27T08:24:55.441Z,5.60
2018-12-27T08:27:24.466Z,5.60
2018-12-27T08:29:53.447Z,5.60
2018-12-27T08:32:22.422Z,5.60
2018-12-27T08:34:51.774Z,5.60
2018-12-27T08:37:20.856Z,5.60
2018-12-27T08:39:50.018Z,5.60
2018-12-27T08:42:18.986Z,5.60
2018-12-27T08:44:48.696Z,5.60
2018-12-27T08:47:18.596Z,5.60
2018-12-27T08:49:48.414Z,5.70
2018-12-27T08:52:18.396Z,5.70
2018-12-27T08:54:47.942Z,5.60
2018-12-27T08:57:17.188Z,5.70
2018-12-27T08:59:46.180Z,5.70
2018-12-27T09:02:15.180Z,5.70
2018-12-27T09:04:44.224Z,5.60
2018-12-27T09:07:13.381Z,5.70
2018-12-27T09:09:42.353Z,5.60
2018-12-27T09:12:11.403Z,5.60
2018-12-27T09:14:40.482Z,5.60
2018-12-27T09:17:09.402Z,5.60
2018-12-27T09:19:38.446Z,5.60
2018-12-27T09:22:07.496Z,5.60
2018-12-27T09:24:36.606Z,5.60
2018-12-27T09:27:05.562Z,5.60
2018-12-27T09:29:34.733Z,5.60
2018-12-27T09:32:03.856Z,5.60
2018-12-27T09:34:33.168Z,5.60
2018-12-27T09:37:02.212Z,5.60
2018-12-27T09:39:31.221Z,5.60
2018-12-27T09:42:00.296Z,5.60
2018-12-27T09:44:29.541Z,5.60
2018-12-27T09:46:58.677Z,5.60
2018-12-27T09:49:27.907Z,5.60
2018-12-27T09:52:02.005Z,5.50
2018-12-27T09:54:26.250Z,5.50
2018-12-27T09:56:55.519Z,5.60
2018-12-27T09:59:24.989Z,5.50
2018-12-27T10:01:53.995Z,5.60
2018-12-27T10:04:23.273Z,5.70
2018-12-27T10:06:52.474Z,5.70
2018-12-27T10:09:21.796Z,5.70
2018-12-27T10:11:51.049Z,5.70
2018-12-27T10:14:20.678Z,5.70
2018-12-27T10:16:50.158Z,5.70
2018-12-27T10:19:19.682Z,5.70
2018-12-27T10:21:48.671Z,5.80
2018-12-27T10:24:17.710Z,5.70
2018-12-27T10:26:46.761Z,5.70
2018-12-27T10:29:15.888Z,5.80
2018-12-27T10:31:45.007Z,5.80
2018-12-27T10:34:14.231Z,5.80
2018-12-27T10:36:43.243Z,5.70
2018-12-27T10:39:13.251Z,5.80
2018-12-27T10:41:42.374Z,5.70
2018-12-27T10:44:11.428Z,5.80
2018-12-27T10:46:40.415Z,5.80
2018-12-27T10:49:09.826Z,5.80
2018-12-27T10:51:38.977Z,5.80
2018-12-27T10:54:09.224Z,5.80
2018-12-27T10:56:38.746Z,5.80
2018-12-27T10:59:07.893Z,5.90
2018-12-27T11:01:37.133Z,5.90
2018-12-27T11:04:21.884Z,5.90
2018-12-27T11:06:50.870Z,5.90
2018-12-27T11:09:20.028Z,5.90
2018-12-27T11:11:49.024Z,5.90
2018-12-27T11:14:18.134Z,5.90
2018-12-27T11:16:47.309Z,6.00
2018-12-27T11:19:16.454Z,6.10
2018-12-27T11:21:46.228Z,6.10
2018-12-27T11:24:16.834Z,6.10
2018-12-27T11:26:46.102Z,6.10
2018-12-27T11:29:15.223Z,6.10
2018-12-27T11:31:44.391Z,6.10
2018-12-27T11:34:13.388Z,6.10
2018-12-27T11:36:42.717Z,6.20
2018-12-27T11:39:11.989Z,6.20
2018-12-27T11:41:41.368Z,6.20
2018-12-27T11:44:11.765Z,6.30
2018-12-27T11:46:40.851Z,6.30
2018-12-27T11:49:10.352Z,6.40
2018-12-27T11:51:39.887Z,6.30
2018-12-27T11:54:09.175Z,6.30
2018-12-27T11:56:39.853Z,6.30
2018-12-27T11:59:09.415Z,6.20
2018-12-27T12:01:38.427Z,6.30
2018-12-27T12:04:07.429Z,6.20
2018-12-27T12:06:36.391Z,6.30
2018-12-27T12:09:07.253Z,6.30
2018-12-27T12:11:36.265Z,6.40
2018-12-27T12:14:05.385Z,6.40
2018-12-27T12:16:42.707Z,6.40
2018-12-27T12:19:12.094Z,6.40
2018-12-27T12:21:41.321Z,6.30
2018-12-27T12:24:10.426Z,6.30
2018-12-27T12:26:39.696Z,6.30
2018-12-27T12:29:08.834Z,6.30
2018-12-27T12:31:38.440Z,6.30
2018-12-27T12:34:07.544Z,6.30
2018-12-27T12:36:36.662Z,6.30
2018-12-27T12:39:07.823Z,6.30
2018-12-27T12:41:36.892Z,6.20
2018-12-27T12:44:05.985Z,6.20
2018-12-27T12:46:34.975Z,6.20
2018-12-27T12:49:04.095Z,6.20
2018-12-27T12:51:33.342Z,6.20
2018-12-27T12:54:02.340Z,6.20
2018-12-27T12:56:31.365Z,6.30
2018-12-27T12:59:01.134Z,6.30
2018-12-27T13:01:30.127Z,6.20
2018-12-27T13:03:59.123Z,6.30
2018-12-27T13:06:28.271Z,6.30
2018-12-27T13:08:57.233Z,6.30
2018-12-27T13:11:26.496Z,6.30
2018-12-27T13:13:55.702Z,6.30
2018-12-27T13:16:24.782Z,6.40
2018-12-27T13:18:53.849Z,6.40
2018-12-27T13:21:23.008Z,6.40
2018-12-27T13:23:52.004Z,6.40
2018-12-27T13:26:21.096Z,6.30
2018-12-27T13:28:50.100Z,6.30
2018-12-27T13:31:19.416Z,6.30
2018-12-27T13:33:48.734Z,6.30
2018-12-27T13:36:17.746Z,6.30
2018-12-27T13:38:46.814Z,6.30
2018-12-27T13:41:15.966Z,6.30
2018-12-27T13:43:45.382Z,6.30
2018-12-27T13:46:14.815Z,6.20
2018-12-27T13:48:43.811Z,6.20
2018-12-27T13:51:12.965Z,6.20
2018-12-27T13:53:42.125Z,6.20
2018-12-27T13:56:11.148Z,6.20
2018-12-27T13:58:40.141Z,6.20
2018-12-27T14:01:09.501Z,6.20
2018-12-27T14:03:38.504Z,6.30
2018-12-27T14:06:07.667Z,6.20
2018-12-27T14:08:36.667Z,6.20
2018-12-27T14:11:05.773Z,6.20
2018-12-27T14:13:34.893Z,6.20
2018-12-27T14:16:04.852Z,6.30
2018-12-27T14:18:33.992Z,6.20
2018-12-27T14:21:03.032Z,6.20
2018-12-27T14:23:32.000Z,6.20
2018-12-27T14:26:01.078Z,6.20
2018-12-27T14:28:30.120Z,6.20
2018-12-27T14:30:59.182Z,6.20
2018-12-27T14:33:28.343Z,6.20
2018-12-27T14:35:57.432Z,6.20
2018-12-27T14:38:26.427Z,6.20
2018-12-27T14:40:55.404Z,6.20
2018-12-27T14:43:24.522Z,6.10
2018-12-27T14:45:53.533Z,6.20
2018-12-27T14:48:22.667Z,6.20
2018-12-27T14:50:51.802Z,6.20
2018-12-27T14:53:20.897Z,6.20
2018-12-27T14:55:50.606Z,6.20
2018-12-27T14:58:19.695Z,6.10
2018-12-27T15:00:48.688Z,6.20
2018-12-27T15:03:17.786Z,6.20
2018-12-27T15:05:46.780Z,6.20
2018-12-27T15:08:15.804Z,6.20
2018-12-27T15:10:44.801Z,6.20
2018-12-27T15:13:13.826Z,6.20
2018-12-27T15:15:42.873Z,6.20
2018-12-27T15:18:12.047Z,6.20
2018-12-27T15:20:41.089Z,6.10
2018-12-27T15:23:10.335Z,6.20
2018-12-27T15:25:39.375Z,6.20
2018-12-27T15:28:08.426Z,6.20
2018-12-27T15:30:37.579Z,6.20
2018-12-27T15:33:06.650Z,6.20
2018-12-27T15:35:35.699Z,6.20
2018-12-27T15:38:04.687Z,6.30
2018-12-27T15:40:33.694Z,6.20
2018-12-27T15:43:02.842Z,6.20
2018-12-27T15:45:31.854Z,6.20
2018-12-27T15:48:00.914Z,6.20
2018-12-27T15:50:29.876Z,6.10
2018-12-27T15:52:58.940Z,6.20
2018-12-27T15:55:27.936Z,6.20
2018-12-27T15:57:56.914Z,6.20
2018-12-27T16:00:26.029Z,6.10
2018-12-27T16:02:55.330Z,6.10
2018-12-27T16:05:24.787Z,6.10
2018-12-27T16:07:53.923Z,6.20
2018-12-27T16:10:22.900Z,6.20
2018-12-27T16:12:52.000Z,6.20
2018-12-27T16:15:21.011Z,6.20
2018-12-27T16:17:50.001Z,6.10
2018-12-27T16:20:19.287Z,6.20
2018-12-27T16:22:48.182Z,6.20
2018-12-27T16:25:17.160Z,6.30
2018-12-27T16:27:46.240Z,6.30
2018-12-27T16:30:15.334Z,6.30
2018-12-27T16:32:44.350Z,6.20
2018-12-27T16:35:13.434Z,6.30
2018-12-27T16:37:42.467Z,6.30
2018-12-27T16:40:11.531Z,6.30
2018-12-27T16:42:40.782Z,6.30
2018-12-27T16:45:09.873Z,6.30
2018-12-27T16:47:38.929Z,6.30
2018-12-27T16:50:08.912Z,6.30
2018-12-27T16:52:38.190Z,6.30
2018-12-27T16:55:07.185Z,6.40
2018-12-27T16:57:36.176Z,6.30
2018-12-27T17:00:05.839Z,6.30
2018-12-27T17:02:35.272Z,6.40
2018-12-27T17:05:04.243Z,6.40
2018-12-27T17:07:33.393Z,6.40
2018-12-27T17:10:02.509Z,6.40
2018-12-27T17:12:31.577Z,6.40
2018-12-27T17:15:00.625Z,6.40
2018-12-27T17:17:29.640Z,6.40
2018-12-27T17:19:58.698Z,6.40
2018-12-27T17:22:27.754Z,6.40
2018-12-27T17:24:56.902Z,6.40
2018-12-27T17:27:30.144Z,6.40
2018-12-27T17:29:59.214Z,6.40
2018-12-27T17:32:28.232Z,6.40
2018-12-27T17:34:57.371Z,6.40
2018-12-27T17:37:26.954Z,6.40
2018-12-27T17:39:56.040Z,6.40
2018-12-27T17:42:25.099Z,6.40
2018-12-27T17:44:54.195Z,6.40
2018-12-27T17:47:24.897Z,6.40
2018-12-27T17:49:54.478Z,6.40
2018-12-27T17:52:30.107Z,6.40
2018-12-27T17:54:52.638Z,6.40
2018-12-27T17:57:21.778Z,6.50
2018-12-27T17:59:50.929Z,6.40
2018-12-27T18:02:19.920Z,6.40
2018-12-27T18:04:49.677Z,6.40
2018-12-27T18:07:18.793Z,6.50
2018-12-27T18:09:48.053Z,6.40
2018-12-27T18:12:18.323Z,6.40
2018-12-27T18:14:59.538Z,6.40
2018-12-27T18:17:29.009Z,6.40
2018-12-27T18:19:59.115Z,6.40
2018-12-27T18:22:28.402Z,6.40
2018-12-27T18:24:57.421Z,6.40
2018-12-27T18:27:26.556Z,6.40
2018-12-27T18:29:55.640Z,6.50
2018-12-27T18:32:24.986Z,6.40
2018-12-27T18:34:54.191Z,6.40
2018-12-27T18:37:24.120Z,6.40
2018-12-27T18:39:53.562Z,6.40
2018-12-27T18:42:22.705Z,6.50
2018-12-27T18:44:51.740Z,6.40
2018-12-27T18:47:21.526Z,6.40
2018-12-27T18:49:50.638Z,6.50
2018-12-27T18:52:19.660Z,6.50
2018-12-27T18:54:48.734Z,6.50
2018-12-27T18:57:17.860Z,6.50
2018-12-27T18:59:46.992Z,6.40
2018-12-27T19:02:16.754Z,6.50
2018-12-27T19:04:45.829Z,6.50
2018-12-27T19:07:14.860Z,6.40
2018-12-27T19:09:43.952Z,6.40
2018-12-27T19:12:24.296Z,6.40
2018-12-27T19:14:57.649Z,6.40
2018-12-27T19:17:32.133Z,6.40
2018-12-27T19:20:01.409Z,6.50
2018-12-27T19:22:39.079Z,6.40
2018-12-27T19:25:08.089Z,6.40
2018-12-27T19:27:37.149Z,6.50
2018-12-27T19:30:06.373Z,6.50
2018-12-27T19:32:35.490Z,6.50
2018-12-27T19:35:04.724Z,6.50
2018-12-27T19:37:33.761Z,6.40
2018-12-27T19:40:02.795Z,6.40
2018-12-27T19:42:31.778Z,6.40
2018-12-27T19:45:03.907Z,6.40
2018-12-27T19:47:42.618Z,6.40
2018-12-27T19:50:17.483Z,6.40
2018-12-27T19:52:50.782Z,6.40
2018-12-27T19:55:24.412Z,6.40
2018-12-27T19:57:54.980Z,6.40
2018-12-27T20:00:24.890Z,6.40
2018-12-27T20:02:55.122Z,6.40
2018-12-27T20:05:24.703Z,6.40
2018-12-27T20:07:59.350Z,6.40
2018-12-27T20:10:23.483Z,6.40
2018-12-27T20:12:52.657Z,6.40
2018-12-27T20:15:21.852Z,6.40
2018-12-27T20:17:51.167Z,6.40
2018-12-27T20:20:20.577Z,6.30
2018-12-27T20:22:50.088Z,6.40
2018-12-27T20:25:19.170Z,6.30
2018-12-27T20:27:48.249Z,6.40
2018-12-27T20:30:17.409Z,6.40
2018-12-27T20:32:46.767Z,6.30
2018-12-27T20:35:16.981Z,6.30
2018-12-27T20:37:46.571Z,6.30
2018-12-27T20:40:16.073Z,6.30
2018-12-27T20:42:45.925Z,6.40
2018-12-27T20:45:16.661Z,6.40
2018-12-27T20:47:46.527Z,6.30
2018-12-27T20:50:16.398Z,6.30
2018-12-27T20:52:46.404Z,6.30
2018-12-27T20:55:15.600Z,6.30
2018-12-27T20:57:45.022Z,6.20
2018-12-27T21:00:14.860Z,6.30
2018-12-27T21:02:44.034Z,6.20
2018-12-27T21:05:13.124Z,6.20
2018-12-27T21:07:42.253Z,6.20
2018-12-27T21:10:11.544Z,6.20
2018-12-27T21:12:40.855Z,6.30
2018-12-27T21:15:10.192Z,6.30
2018-12-27T21:17:40.216Z,6.30
2018-12-27T21:20:09.932Z,6.20
2018-12-27T21:22:39.597Z,6.30
2018-12-27T21:25:09.165Z,6.30
2018-12-27T21:27:38.352Z,6.20
2018-12-27T21:30:08.474Z,6.20
2018-12-27T21:32:37.695Z,6.20
2018-12-27T21:35:06.893Z,6.20
2018-12-27T21:37:36.074Z,6.20
2018-12-27T21:40:05.541Z,6.20
2018-12-27T21:42:34.718Z,6.20
2018-12-27T21:45:04.738Z,6.20
2018-12-27T21:47:34.014Z,6.20
2018-12-27T21:50:03.155Z,6.20
2018-12-27T21:52:32.293Z,6.20
2018-12-27T21:55:01.363Z,6.20
2018-12-27T21:57:30.510Z,6.20
2018-12-27T21:59:59.616Z,6.20
2018-12-27T22:02:30.267Z,6.20
2018-12-27T22:04:59.482Z,6.20
2018-12-27T22:07:28.658Z,6.20
2018-12-27T22:09:58.125Z,6.20
2018-12-27T22:12:27.508Z,6.20
2018-12-27T22:14:56.576Z,6.20
2018-12-27T22:17:25.676Z,6.10
2018-12-27T22:19:54.663Z,6.20
2018-12-27T22:22:23.799Z,6.10
2018-12-27T22:24:52.828Z,6.20
2018-12-27T22:27:21.860Z,6.20
2018-12-27T22:29:50.923Z,6.10
2018-12-27T22:32:20.031Z,6.10
2018-12-27T22:34:49.471Z,6.10
2018-12-27T22:37:18.511Z,6.10
2018-12-27T22:39:47.521Z,6.10
2018-12-27T22:42:17.011Z,6.10
2018-12-27T22:44:46.103Z,6.10
2018-12-27T22:47:15.119Z,6.10
2018-12-27T22:49:44.405Z,6.20
2018-12-27T22:52:13.566Z,6.10
2018-12-27T22:54:42.567Z,6.10
2018-12-27T22:57:11.571Z,6.20
2018-12-27T22:59:40.641Z,6.20
2018-12-27T23:02:09.760Z,6.10
2018-12-27T23:04:38.930Z,6.10
2018-12-27T23:07:08.000Z,6.10
2018-12-27T23:09:37.346Z,6.10
2018-12-27T23:12:06.368Z,6.20
2018-12-27T23:14:35.409Z,6.20
2018-12-27T23:17:04.498Z,6.20
2018-12-27T23:19:33.566Z,6.10
2018-12-27T23:22:02.596Z,6.10
2018-12-27T23:24:31.747Z,6.20
2018-12-27T23:27:00.851Z,6.20
2018-12-27T23:29:29.846Z,6.10
2018-12-27T23:31:59.794Z,6.10
2018-12-27T23:34:28.781Z,6.10
2018-12-27T23:36:57.718Z,6.10
2018-12-27T23:39:26.769Z,6.10
2018-12-27T23:41:55.842Z,6.10
2018-12-27T23:44:24.839Z,6.10
2018-12-27T23:46:53.999Z,6.20
2018-12-27T23:49:23.035Z,6.20
2018-12-27T23:51:52.035Z,6.20
2018-12-27T23:54:21.071Z,6.20
2018-12-27T23:56:50.147Z,6.20
2018-12-27T23:59:19.053Z,6.20
